Airfield :
LOGIN :

Register | Disclaimer

   EN    FR    IT 

 










Legend :    VFR   Marginal VFR   IFR   Intensive IFR   Very Intensive IFR
Visi :
Ceiling :
>= 8 km
>= 3000ft
5 to 8 km
1000 to 3000 ft
1500m to 5 km
500 to 1000 ft
800 to 1500m
200 to 500 ft
< 800m
< 200 ft
Symbols :   Thunderstorms  Fog  Heavy snow  Heavy precipitations  Wind > 20 kt
SIGMETs :     Misc.  Thunderstorms  Icing  Turbulence  Mountain Waves  Volcanic Ashes







- Airport Elevation : 245 ft
- IATA code : BIQ
- Download approach charts


LFBZ - Biarritz

CURRENT METAR :
  • 270630Z AUTO 26005KT 230V290 9999 BKN022 OVC029 13/12 Q1018 TEMPO 2000 -RADZ BR OVC004

EXPIRED METARs :
  • 270600Z AUTO 30006KT 250V330 3400 -RA BR SCT005 BKN010 BKN014 13/12 Q1018 TEMPO 2000 -RADZ BR OVC004
  • 270530Z AUTO VRB03KT 9999 BKN017 BKN027 OVC032 13/12 Q1018 TEMPO 2000 -RADZ BR OVC004
  • 270500Z AUTO 32007KT 9999 FEW005 BKN027 OVC037 13/12 Q1018 TEMPO 3000 -RADZ OVC005
  • 270430Z AUTO 31006KT 9999 SCT006 BKN012 BKN018 13/13 Q1018 TEMPO 3000 -RADZ OVC005
  • 270400Z AUTO 31006KT 9999 BKN009 BKN016 BKN025 13/13 Q1018 TEMPO 3000 -RADZ

TAF TAF LFBZ
Valid from the 27 at 06:00 until the 28 at 06:00 UTC


270500Z 2706/2806 30010KT 9999 BKN010
TEMPO 2706/2716 2000 -RADZ BR OVC004
BECMG 2717/2719 BKN020
No reported NOTAMs for that airfield.



MET'MAP, your aeronautical weather chart ! - Copyright ORBIFLY December 2007 - Disclaimer

ORBIFLY MET'MAP TEAM :

Programming & Development : Alexandra Zaïnal
Concept & Development : Baudouin d'Aumeries
Co-Development & Prog : Marc-Olivier Méhu
Technical & hardware support : Manuel Goepfert

Contact : metmap@orbifly.com




SOURCES & CREDITS :

   NOAA